sensor_id;sensor_type;location;lat;lon;timestamp;P1;durP1;ratioP1;P2;durP2;ratioP2
54919;SDS011;63804;53.120;8.764;2024-01-06T00:01:59;6.05;;;3.42;;
54919;SDS011;63804;53.120;8.764;2024-01-06T00:04:27;6.35;;;3.30;;
54919;SDS011;63804;53.120;8.764;2024-01-06T00:06:56;8.27;;;3.47;;
54919;SDS011;63804;53.120;8.764;2024-01-06T00:09:24;7.18;;;3.45;;
54919;SDS011;63804;53.120;8.764;2024-01-06T00:11:52;6.47;;;2.97;;
54919;SDS011;63804;53.120;8.764;2024-01-06T00:14:20;6.10;;;3.38;;
54919;SDS011;63804;53.120;8.764;2024-01-06T00:16:48;5.55;;;3.00;;
54919;SDS011;63804;53.120;8.764;2024-01-06T00:19:15;6.65;;;3.17;;
54919;SDS011;63804;53.120;8.764;2024-01-06T00:21:45;5.32;;;3.00;;
54919;SDS011;63804;53.120;8.764;2024-01-06T00:24:13;6.35;;;3.28;;
54919;SDS011;63804;53.120;8.764;2024-01-06T00:26:41;6.55;;;3.30;;
54919;SDS011;63804;53.120;8.764;2024-01-06T00:29:09;6.78;;;3.53;;
54919;SDS011;63804;53.120;8.764;2024-01-06T00:31:37;7.32;;;3.30;;
54919;SDS011;63804;53.120;8.764;2024-01-06T00:34:05;5.55;;;3.00;;
54919;SDS011;63804;53.120;8.764;2024-01-06T00:36:33;5.63;;;2.78;;
54919;SDS011;63804;53.120;8.764;2024-01-06T00:39:01;6.00;;;3.17;;
54919;SDS011;63804;53.120;8.764;2024-01-06T00:41:29;6.55;;;3.47;;
54919;SDS011;63804;53.120;8.764;2024-01-06T00:43:57;5.75;;;3.00;;
54919;SDS011;63804;53.120;8.764;2024-01-06T00:46:25;5.38;;;3.25;;
54919;SDS011;63804;53.120;8.764;2024-01-06T00:48:53;6.85;;;3.10;;
54919;SDS011;63804;53.120;8.764;2024-01-06T00:51:21;3.83;;;2.60;;
54919;SDS011;63804;53.120;8.764;2024-01-06T00:53:49;7.43;;;3.88;;
54919;SDS011;63804;53.120;8.764;2024-01-06T00:56:17;6.97;;;3.53;;
54919;SDS011;63804;53.120;8.764;2024-01-06T00:58:45;7.25;;;3.42;;
54919;SDS011;63804;53.120;8.764;2024-01-06T01:01:13;6.10;;;3.10;;
54919;SDS011;63804;53.120;8.764;2024-01-06T01:03:41;6.75;;;3.70;;
54919;SDS011;63804;53.120;8.764;2024-01-06T01:06:09;8.60;;;4.35;;
54919;SDS011;63804;53.120;8.764;2024-01-06T01:08:37;7.65;;;3.58;;
54919;SDS011;63804;53.120;8.764;2024-01-06T01:11:05;5.93;;;3.35;;
54919;SDS011;63804;53.120;8.764;2024-01-06T01:13:33;8.07;;;3.83;;
54919;SDS011;63804;53.120;8.764;2024-01-06T01:16:01;7.03;;;3.67;;
54919;SDS011;63804;53.120;8.764;2024-01-06T01:18:30;7.25;;;3.47;;
54919;SDS011;63804;53.120;8.764;2024-01-06T01:20:58;6.75;;;3.50;;
54919;SDS011;63804;53.120;8.764;2024-01-06T01:23:27;7.05;;;3.40;;
54919;SDS011;63804;53.120;8.764;2024-01-06T01:25:55;7.97;;;3.65;;
54919;SDS011;63804;53.120;8.764;2024-01-06T01:28:23;6.00;;;3.30;;
54919;SDS011;63804;53.120;8.764;2024-01-06T01:30:50;5.50;;;2.83;;
54919;SDS011;63804;53.120;8.764;2024-01-06T01:33:19;5.25;;;2.90;;
54919;SDS011;63804;53.120;8.764;2024-01-06T01:35:47;5.60;;;3.08;;
54919;SDS011;63804;53.120;8.764;2024-01-06T01:38:15;6.55;;;3.28;;
54919;SDS011;63804;53.120;8.764;2024-01-06T01:40:43;7.28;;;3.20;;
54919;SDS011;63804;53.120;8.764;2024-01-06T01:43:18;7.03;;;3.30;;
54919;SDS011;63804;53.120;8.764;2024-01-06T01:45:48;5.18;;;2.60;;
54919;SDS011;63804;53.120;8.764;2024-01-06T01:48:20;7.43;;;3.80;;
54919;SDS011;63804;53.120;8.764;2024-01-06T01:50:50;5.25;;;3.03;;
54919;SDS011;63804;53.120;8.764;2024-01-06T01:53:20;6.80;;;3.53;;
54919;SDS011;63804;53.120;8.764;2024-01-06T01:55:51;6.50;;;3.17;;
54919;SDS011;63804;53.120;8.764;2024-01-06T01:58:20;6.82;;;3.30;;
54919;SDS011;63804;53.120;8.764;2024-01-06T02:00:48;6.88;;;3.67;;
54919;SDS011;63804;53.120;8.764;2024-01-06T02:03:16;6.78;;;3.45;;
54919;SDS011;63804;53.120;8.764;2024-01-06T02:05:44;7.50;;;3.58;;
54919;SDS011;63804;53.120;8.764;2024-01-06T02:08:12;5.28;;;3.25;;
54919;SDS011;63804;53.120;8.764;2024-01-06T02:10:40;5.55;;;3.25;;
54919;SDS011;63804;53.120;8.764;2024-01-06T02:13:09;6.85;;;3.70;;
54919;SDS011;63804;53.120;8.764;2024-01-06T02:15:40;7.40;;;3.20;;
54919;SDS011;63804;53.120;8.764;2024-01-06T02:18:08;7.25;;;3.30;;
54919;SDS011;63804;53.120;8.764;2024-01-06T02:20:37;6.80;;;3.50;;
54919;SDS011;63804;53.120;8.764;2024-01-06T02:23:05;5.70;;;3.28;;
54919;SDS011;63804;53.120;8.764;2024-01-06T02:25:33;5.75;;;3.58;;
54919;SDS011;63804;53.120;8.764;2024-01-06T02:28:01;6.55;;;3.25;;
54919;SDS011;63804;53.120;8.764;2024-01-06T02:30:29;8.05;;;3.47;;
54919;SDS011;63804;53.120;8.764;2024-01-06T02:32:57;5.60;;;2.97;;
54919;SDS011;63804;53.120;8.764;2024-01-06T02:35:25;5.60;;;2.90;;
54919;SDS011;63804;53.120;8.764;2024-01-06T02:37:53;6.72;;;3.33;;
54919;SDS011;63804;53.120;8.764;2024-01-06T02:40:21;6.25;;;3.00;;
54919;SDS011;63804;53.120;8.764;2024-01-06T02:42:48;5.45;;;3.28;;
54919;SDS011;63804;53.120;8.764;2024-01-06T02:45:17;6.07;;;3.22;;
54919;SDS011;63804;53.120;8.764;2024-01-06T02:47:45;6.10;;;3.25;;
54919;SDS011;63804;53.120;8.764;2024-01-06T02:50:13;6.57;;;2.80;;
54919;SDS011;63804;53.120;8.764;2024-01-06T02:52:41;5.22;;;2.92;;
54919;SDS011;63804;53.120;8.764;2024-01-06T02:55:09;6.38;;;3.25;;
54919;SDS011;63804;53.120;8.764;2024-01-06T02:57:37;5.45;;;2.97;;
54919;SDS011;63804;53.120;8.764;2024-01-06T03:00:06;5.95;;;2.92;;
54919;SDS011;63804;53.120;8.764;2024-01-06T03:02:35;5.05;;;2.92;;
54919;SDS011;63804;53.120;8.764;2024-01-06T03:05:04;4.32;;;2.83;;
54919;SDS011;63804;53.120;8.764;2024-01-06T03:07:32;5.88;;;3.08;;
54919;SDS011;63804;53.120;8.764;2024-01-06T03:10:00;6.25;;;2.90;;
54919;SDS011;63804;53.120;8.764;2024-01-06T03:12:29;6.35;;;3.30;;
54919;SDS011;63804;53.120;8.764;2024-01-06T03:14:57;5.80;;;3.30;;
54919;SDS011;63804;53.120;8.764;2024-01-06T03:17:24;6.03;;;3.10;;
54919;SDS011;63804;53.120;8.764;2024-01-06T03:19:52;6.35;;;3.28;;
54919;SDS011;63804;53.120;8.764;2024-01-06T03:22:20;6.22;;;2.90;;
54919;SDS011;63804;53.120;8.764;2024-01-06T03:24:48;6.22;;;3.17;;
54919;SDS011;63804;53.120;8.764;2024-01-06T03:27:16;5.05;;;2.80;;
54919;SDS011;63804;53.120;8.764;2024-01-06T03:29:44;6.70;;;3.30;;
54919;SDS011;63804;53.120;8.764;2024-01-06T03:32:12;5.68;;;2.88;;
54919;SDS011;63804;53.120;8.764;2024-01-06T03:34:40;4.80;;;2.67;;
54919;SDS011;63804;53.120;8.764;2024-01-06T03:37:09;5.28;;;2.90;;
54919;SDS011;63804;53.120;8.764;2024-01-06T03:39:37;5.80;;;3.00;;
54919;SDS011;63804;53.120;8.764;2024-01-06T03:42:05;5.30;;;2.95;;
54919;SDS011;63804;53.120;8.764;2024-01-06T03:44:33;6.45;;;3.10;;
54919;SDS011;63804;53.120;8.764;2024-01-06T03:47:01;5.43;;;2.97;;
54919;SDS011;63804;53.120;8.764;2024-01-06T03:49:29;6.10;;;3.15;;
54919;SDS011;63804;53.120;8.764;2024-01-06T03:51:57;5.63;;;2.88;;
54919;SDS011;63804;53.120;8.764;2024-01-06T03:54:25;6.03;;;2.95;;
54919;SDS011;63804;53.120;8.764;2024-01-06T03:56:53;5.40;;;2.70;;
54919;SDS011;63804;53.120;8.764;2024-01-06T03:59:21;5.85;;;2.92;;
54919;SDS011;63804;53.120;8.764;2024-01-06T04:01:49;4.82;;;2.67;;
54919;SDS011;63804;53.120;8.764;2024-01-06T04:04:17;5.97;;;2.95;;
54919;SDS011;63804;53.120;8.764;2024-01-06T04:06:45;5.68;;;3.10;;
54919;SDS011;63804;53.120;8.764;2024-01-06T04:09:13;5.32;;;2.83;;
54919;SDS011;63804;53.120;8.764;2024-01-06T04:11:44;6.28;;;3.00;;
54919;SDS011;63804;53.120;8.764;2024-01-06T04:14:12;6.70;;;2.80;;
54919;SDS011;63804;53.120;8.764;2024-01-06T04:16:40;5.35;;;2.85;;
54919;SDS011;63804;53.120;8.764;2024-01-06T04:19:08;6.57;;;3.13;;
54919;SDS011;63804;53.120;8.764;2024-01-06T04:21:36;5.90;;;3.00;;
54919;SDS011;63804;53.120;8.764;2024-01-06T04:24:04;4.63;;;2.85;;
54919;SDS011;63804;53.120;8.764;2024-01-06T04:26:32;5.45;;;3.10;;
54919;SDS011;63804;53.120;8.764;2024-01-06T04:29:00;5.72;;;3.20;;
54919;SDS011;63804;53.120;8.764;2024-01-06T04:31:29;6.32;;;3.03;;
54919;SDS011;63804;53.120;8.764;2024-01-06T04:33:57;5.60;;;3.05;;
54919;SDS011;63804;53.120;8.764;2024-01-06T04:36:25;5.47;;;2.72;;
54919;SDS011;63804;53.120;8.764;2024-01-06T04:38:53;5.70;;;2.83;;
54919;SDS011;63804;53.120;8.764;2024-01-06T04:41:21;5.20;;;3.03;;
54919;SDS011;63804;53.120;8.764;2024-01-06T04:43:49;5.90;;;2.88;;
54919;SDS011;63804;53.120;8.764;2024-01-06T04:46:16;6.18;;;3.30;;
54919;SDS011;63804;53.120;8.764;2024-01-06T04:48:44;5.53;;;2.88;;
54919;SDS011;63804;53.120;8.764;2024-01-06T04:51:12;5.25;;;2.78;;
54919;SDS011;63804;53.120;8.764;2024-01-06T04:53:41;6.10;;;2.92;;
54919;SDS011;63804;53.120;8.764;2024-01-06T04:56:09;5.65;;;2.90;;
54919;SDS011;63804;53.120;8.764;2024-01-06T04:58:37;7.05;;;3.65;;
54919;SDS011;63804;53.120;8.764;2024-01-06T05:01:05;5.97;;;2.88;;
54919;SDS011;63804;53.120;8.764;2024-01-06T05:03:33;5.95;;;2.85;;
54919;SDS011;63804;53.120;8.764;2024-01-06T05:06:01;5.75;;;3.10;;
54919;SDS011;63804;53.120;8.764;2024-01-06T05:08:29;5.75;;;3.00;;
54919;SDS011;63804;53.120;8.764;2024-01-06T05:10:58;6.38;;;3.40;;
54919;SDS011;63804;53.120;8.764;2024-01-06T05:13:26;5.40;;;3.17;;
54919;SDS011;63804;53.120;8.764;2024-01-06T05:15:54;4.80;;;2.83;;
54919;SDS011;63804;53.120;8.764;2024-01-06T05:18:22;5.75;;;2.88;;
54919;SDS011;63804;53.120;8.764;2024-01-06T05:20:50;5.35;;;2.97;;
54919;SDS011;63804;53.120;8.764;2024-01-06T05:23:18;6.93;;;3.08;;
54919;SDS011;63804;53.120;8.764;2024-01-06T05:25:46;6.28;;;3.17;;
54919;SDS011;63804;53.120;8.764;2024-01-06T05:28:14;6.38;;;3.08;;
54919;SDS011;63804;53.120;8.764;2024-01-06T05:30:42;5.75;;;2.97;;
54919;SDS011;63804;53.120;8.764;2024-01-06T05:33:10;5.97;;;3.15;;
54919;SDS011;63804;53.120;8.764;2024-01-06T05:35:41;5.00;;;2.80;;
54919;SDS011;63804;53.120;8.764;2024-01-06T05:38:09;7.00;;;3.65;;
54919;SDS011;63804;53.120;8.764;2024-01-06T05:40:37;5.45;;;3.00;;
54919;SDS011;63804;53.120;8.764;2024-01-06T05:43:05;5.57;;;3.17;;
54919;SDS011;63804;53.120;8.764;2024-01-06T05:45:33;5.15;;;3.00;;
54919;SDS011;63804;53.120;8.764;2024-01-06T05:48:01;5.90;;;3.08;;
54919;SDS011;63804;53.120;8.764;2024-01-06T05:50:29;5.85;;;3.13;;
54919;SDS011;63804;53.120;8.764;2024-01-06T05:52:58;5.18;;;2.88;;
54919;SDS011;63804;53.120;8.764;2024-01-06T05:55:25;6.25;;;3.15;;
54919;SDS011;63804;53.120;8.764;2024-01-06T05:57:53;6.18;;;3.00;;
54919;SDS011;63804;53.120;8.764;2024-01-06T06:00:21;5.43;;;2.90;;
54919;SDS011;63804;53.120;8.764;2024-01-06T06:02:49;4.68;;;2.80;;
54919;SDS011;63804;53.120;8.764;2024-01-06T06:05:17;6.05;;;3.22;;
54919;SDS011;63804;53.120;8.764;2024-01-06T06:07:45;5.78;;;3.30;;
54919;SDS011;63804;53.120;8.764;2024-01-06T06:10:13;6.90;;;3.20;;
54919;SDS011;63804;53.120;8.764;2024-01-06T06:12:43;6.88;;;3.47;;
54919;SDS011;63804;53.120;8.764;2024-01-06T06:15:12;6.68;;;3.50;;
54919;SDS011;63804;53.120;8.764;2024-01-06T06:17:40;5.05;;;3.13;;
54919;SDS011;63804;53.120;8.764;2024-01-06T06:20:08;6.75;;;3.30;;
54919;SDS011;63804;53.120;8.764;2024-01-06T06:22:37;7.20;;;3.28;;
54919;SDS011;63804;53.120;8.764;2024-01-06T06:25:05;6.22;;;3.28;;
54919;SDS011;63804;53.120;8.764;2024-01-06T06:27:33;7.53;;;3.58;;
54919;SDS011;63804;53.120;8.764;2024-01-06T06:30:01;5.70;;;3.50;;
54919;SDS011;63804;53.120;8.764;2024-01-06T06:32:30;6.53;;;3.50;;
54919;SDS011;63804;53.120;8.764;2024-01-06T06:34:58;5.45;;;3.15;;
54919;SDS011;63804;53.120;8.764;2024-01-06T06:37:26;7.65;;;3.72;;
54919;SDS011;63804;53.120;8.764;2024-01-06T06:39:54;6.43;;;3.60;;
54919;SDS011;63804;53.120;8.764;2024-01-06T06:42:21;6.53;;;3.40;;
54919;SDS011;63804;53.120;8.764;2024-01-06T06:44:49;6.72;;;3.90;;
54919;SDS011;63804;53.120;8.764;2024-01-06T06:47:17;6.40;;;3.45;;
54919;SDS011;63804;53.120;8.764;2024-01-06T06:49:46;6.65;;;3.75;;
54919;SDS011;63804;53.120;8.764;2024-01-06T06:52:14;7.57;;;3.70;;
54919;SDS011;63804;53.120;8.764;2024-01-06T06:54:42;6.80;;;3.90;;
54919;SDS011;63804;53.120;8.764;2024-01-06T06:57:10;6.85;;;3.70;;
54919;SDS011;63804;53.120;8.764;2024-01-06T06:59:39;9.35;;;4.55;;
54919;SDS011;63804;53.120;8.764;2024-01-06T07:02:07;7.07;;;4.10;;
54919;SDS011;63804;53.120;8.764;2024-01-06T07:04:35;7.38;;;3.88;;
54919;SDS011;63804;53.120;8.764;2024-01-06T07:07:02;8.48;;;4.07;;
54919;SDS011;63804;53.120;8.764;2024-01-06T07:09:30;7.50;;;4.10;;
54919;SDS011;63804;53.120;8.764;2024-01-06T07:11:58;8.07;;;4.05;;
54919;SDS011;63804;53.120;8.764;2024-01-06T07:14:26;7.82;;;4.50;;
54919;SDS011;63804;53.120;8.764;2024-01-06T07:16:54;8.20;;;4.75;;
54919;SDS011;63804;53.120;8.764;2024-01-06T07:19:22;7.53;;;4.30;;
54919;SDS011;63804;53.120;8.764;2024-01-06T07:21:50;8.50;;;4.60;;
54919;SDS011;63804;53.120;8.764;2024-01-06T07:24:18;8.73;;;4.60;;
54919;SDS011;63804;53.120;8.764;2024-01-06T07:26:46;8.20;;;4.72;;
54919;SDS011;63804;53.120;8.764;2024-01-06T07:29:14;9.52;;;4.88;;
54919;SDS011;63804;53.120;8.764;2024-01-06T07:31:42;8.55;;;4.60;;
54919;SDS011;63804;53.120;8.764;2024-01-06T07:34:10;8.57;;;4.45;;
54919;SDS011;63804;53.120;8.764;2024-01-06T07:36:38;7.45;;;4.38;;
54919;SDS011;63804;53.120;8.764;2024-01-06T07:39:07;9.35;;;4.70;;
54919;SDS011;63804;53.120;8.764;2024-01-06T07:41:35;9.18;;;4.85;;
54919;SDS011;63804;53.120;8.764;2024-01-06T07:44:03;8.05;;;4.68;;
54919;SDS011;63804;53.120;8.764;2024-01-06T07:46:31;9.85;;;5.15;;
54919;SDS011;63804;53.120;8.764;2024-01-06T07:48:59;9.40;;;4.88;;
54919;SDS011;63804;53.120;8.764;2024-01-06T07:51:28;7.78;;;4.50;;
54919;SDS011;63804;53.120;8.764;2024-01-06T07:53:56;9.73;;;5.20;;
54919;SDS011;63804;53.120;8.764;2024-01-06T07:56:24;8.07;;;4.63;;
54919;SDS011;63804;53.120;8.764;2024-01-06T07:58:52;8.75;;;5.13;;
54919;SDS011;63804;53.120;8.764;2024-01-06T08:01:22;8.52;;;4.88;;
54919;SDS011;63804;53.120;8.764;2024-01-06T08:03:50;9.63;;;5.32;;
54919;SDS011;63804;53.120;8.764;2024-01-06T08:06:18;9.85;;;5.10;;
54919;SDS011;63804;53.120;8.764;2024-01-06T08:08:47;10.48;;;4.85;;
54919;SDS011;63804;53.120;8.764;2024-01-06T08:11:15;9.70;;;5.10;;
54919;SDS011;63804;53.120;8.764;2024-01-06T08:13:43;8.57;;;4.65;;
54919;SDS011;63804;53.120;8.764;2024-01-06T08:16:11;8.90;;;4.95;;
54919;SDS011;63804;53.120;8.764;2024-01-06T08:18:39;9.68;;;5.35;;
54919;SDS011;63804;53.120;8.764;2024-01-06T08:21:07;9.57;;;5.57;;
54919;SDS011;63804;53.120;8.764;2024-01-06T08:23:35;10.15;;;5.40;;
54919;SDS011;63804;53.120;8.764;2024-01-06T08:26:04;9.77;;;5.28;;
54919;SDS011;63804;53.120;8.764;2024-01-06T08:28:35;9.88;;;5.35;;
54919;SDS011;63804;53.120;8.764;2024-01-06T08:31:03;9.68;;;5.63;;
54919;SDS011;63804;53.120;8.764;2024-01-06T08:33:32;9.27;;;5.40;;
54919;SDS011;63804;53.120;8.764;2024-01-06T08:36:00;9.88;;;6.03;;
54919;SDS011;63804;53.120;8.764;2024-01-06T08:38:28;10.02;;;5.70;;
54919;SDS011;63804;53.120;8.764;2024-01-06T08:40:56;9.65;;;5.70;;
54919;SDS011;63804;53.120;8.764;2024-01-06T08:43:24;10.07;;;6.25;;
54919;SDS011;63804;53.120;8.764;2024-01-06T08:45:52;9.70;;;5.68;;
54919;SDS011;63804;53.120;8.764;2024-01-06T08:48:20;11.00;;;6.15;;
54919;SDS011;63804;53.120;8.764;2024-01-06T08:50:49;9.80;;;5.82;;
54919;SDS011;63804;53.120;8.764;2024-01-06T08:53:17;13.45;;;6.50;;
54919;SDS011;63804;53.120;8.764;2024-01-06T08:55:45;9.63;;;5.93;;
54919;SDS011;63804;53.120;8.764;2024-01-06T08:58:14;10.68;;;6.10;;
54919;SDS011;63804;53.120;8.764;2024-01-06T09:00:41;10.98;;;6.05;;
54919;SDS011;63804;53.120;8.764;2024-01-06T09:03:10;11.45;;;6.45;;
54919;SDS011;63804;53.120;8.764;2024-01-06T09:05:40;10.68;;;6.55;;
54919;SDS011;63804;53.120;8.764;2024-01-06T09:08:08;10.13;;;6.00;;
54919;SDS011;63804;53.120;8.764;2024-01-06T09:10:36;10.65;;;6.40;;
54919;SDS011;63804;53.120;8.764;2024-01-06T09:13:03;10.88;;;6.43;;
54919;SDS011;63804;53.120;8.764;2024-01-06T09:15:32;11.82;;;6.75;;
54919;SDS011;63804;53.120;8.764;2024-01-06T09:18:00;12.10;;;6.85;;
54919;SDS011;63804;53.120;8.764;2024-01-06T09:20:28;12.05;;;7.00;;
54919;SDS011;63804;53.120;8.764;2024-01-06T09:22:56;11.60;;;6.75;;
54919;SDS011;63804;53.120;8.764;2024-01-06T09:25:24;12.05;;;7.25;;
54919;SDS011;63804;53.120;8.764;2024-01-06T09:27:52;10.20;;;6.38;;
54919;SDS011;63804;53.120;8.764;2024-01-06T09:30:21;11.38;;;6.80;;
54919;SDS011;63804;53.120;8.764;2024-01-06T09:32:49;11.13;;;6.70;;
54919;SDS011;63804;53.120;8.764;2024-01-06T09:35:17;11.55;;;6.95;;
54919;SDS011;63804;53.120;8.764;2024-01-06T09:37:44;10.77;;;6.45;;
54919;SDS011;63804;53.120;8.764;2024-01-06T09:40:13;11.38;;;7.00;;
54919;SDS011;63804;53.120;8.764;2024-01-06T09:42:41;11.68;;;6.82;;
54919;SDS011;63804;53.120;8.764;2024-01-06T09:45:09;11.70;;;6.90;;
54919;SDS011;63804;53.120;8.764;2024-01-06T09:47:37;11.27;;;7.18;;
54919;SDS011;63804;53.120;8.764;2024-01-06T09:50:08;12.20;;;7.50;;
54919;SDS011;63804;53.120;8.764;2024-01-06T09:52:39;10.93;;;6.63;;
54919;SDS011;63804;53.120;8.764;2024-01-06T09:55:11;11.25;;;7.00;;
54919;SDS011;63804;53.120;8.764;2024-01-06T09:57:39;11.30;;;6.78;;
54919;SDS011;63804;53.120;8.764;2024-01-06T10:00:07;12.85;;;7.03;;
54919;SDS011;63804;53.120;8.764;2024-01-06T10:02:38;11.75;;;6.72;;
54919;SDS011;63804;53.120;8.764;2024-01-06T10:05:08;10.35;;;6.15;;
54919;SDS011;63804;53.120;8.764;2024-01-06T10:07:37;11.25;;;7.20;;
54919;SDS011;63804;53.120;8.764;2024-01-06T10:10:06;11.55;;;7.35;;
54919;SDS011;63804;53.120;8.764;2024-01-06T10:12:35;11.75;;;6.97;;
54919;SDS011;63804;53.120;8.764;2024-01-06T10:15:05;12.98;;;7.43;;
54919;SDS011;63804;53.120;8.764;2024-01-06T10:17:38;10.90;;;6.72;;
54919;SDS011;63804;53.120;8.764;2024-01-06T10:20:10;10.85;;;6.60;;
54919;SDS011;63804;53.120;8.764;2024-01-06T10:22:42;12.55;;;7.25;;
54919;SDS011;63804;53.120;8.764;2024-01-06T10:25:10;12.38;;;7.05;;
54919;SDS011;63804;53.120;8.764;2024-01-06T10:27:39;14.23;;;7.72;;
54919;SDS011;63804;53.120;8.764;2024-01-06T10:30:08;12.25;;;7.30;;
54919;SDS011;63804;53.120;8.764;2024-01-06T10:32:38;12.30;;;7.60;;
54919;SDS011;63804;53.120;8.764;2024-01-06T10:35:07;11.65;;;7.32;;
54919;SDS011;63804;53.120;8.764;2024-01-06T10:37:35;11.85;;;6.80;;
54919;SDS011;63804;53.120;8.764;2024-01-06T10:40:09;13.18;;;7.75;;
54919;SDS011;63804;53.120;8.764;2024-01-06T10:42:40;12.07;;;7.28;;
54919;SDS011;63804;53.120;8.764;2024-01-06T10:45:10;13.45;;;7.38;;
54919;SDS011;63804;53.120;8.764;2024-01-06T10:47:40;11.55;;;7.38;;
54919;SDS011;63804;53.120;8.764;2024-01-06T10:50:11;12.55;;;7.65;;
54919;SDS011;63804;53.120;8.764;2024-01-06T10:52:39;12.52;;;7.65;;
54919;SDS011;63804;53.120;8.764;2024-01-06T10:55:08;15.10;;;8.73;;
54919;SDS011;63804;53.120;8.764;2024-01-06T10:57:39;13.23;;;7.53;;
54919;SDS011;63804;53.120;8.764;2024-01-06T11:00:10;14.20;;;8.60;;
54919;SDS011;63804;53.120;8.764;2024-01-06T11:02:39;14.02;;;8.13;;
54919;SDS011;63804;53.120;8.764;2024-01-06T11:05:07;14.55;;;8.38;;
54919;SDS011;63804;53.120;8.764;2024-01-06T11:07:38;12.82;;;8.43;;
54919;SDS011;63804;53.120;8.764;2024-01-06T11:10:11;13.43;;;7.60;;
54919;SDS011;63804;53.120;8.764;2024-01-06T11:12:46;12.10;;;7.50;;
54919;SDS011;63804;53.120;8.764;2024-01-06T11:15:40;13.40;;;8.13;;
54919;SDS011;63804;53.120;8.764;2024-01-06T11:18:09;12.45;;;7.70;;
54919;SDS011;63804;53.120;8.764;2024-01-06T11:24:04;13.95;;;8.05;;
54919;SDS011;63804;53.120;8.764;2024-01-06T11:26:45;13.45;;;7.90;;
54919;SDS011;63804;53.120;8.764;2024-01-06T11:29:17;13.55;;;8.30;;
54919;SDS011;63804;53.120;8.764;2024-01-06T11:34:49;16.10;;;8.63;;
54919;SDS011;63804;53.120;8.764;2024-01-06T11:37:19;13.50;;;8.25;;
54919;SDS011;63804;53.120;8.764;2024-01-06T11:39:51;12.70;;;7.43;;
54919;SDS011;63804;53.120;8.764;2024-01-06T11:42:20;13.93;;;8.52;;
54919;SDS011;63804;53.120;8.764;2024-01-06T11:44:51;14.98;;;8.88;;
54919;SDS011;63804;53.120;8.764;2024-01-06T11:47:19;14.98;;;8.70;;
54919;SDS011;63804;53.120;8.764;2024-01-06T11:49:52;13.80;;;8.30;;
54919;SDS011;63804;53.120;8.764;2024-01-06T11:52:23;16.15;;;9.13;;
54919;SDS011;63804;53.120;8.764;2024-01-06T11:54:54;17.00;;;10.27;;
54919;SDS011;63804;53.120;8.764;2024-01-06T11:57:23;15.05;;;8.85;;
54919;SDS011;63804;53.120;8.764;2024-01-06T11:59:51;15.60;;;8.80;;
54919;SDS011;63804;53.120;8.764;2024-01-06T12:02:19;16.45;;;8.85;;
54919;SDS011;63804;53.120;8.764;2024-01-06T12:04:50;13.85;;;8.82;;
54919;SDS011;63804;53.120;8.764;2024-01-06T12:07:20;16.40;;;9.32;;
54919;SDS011;63804;53.120;8.764;2024-01-06T12:10:00;14.73;;;8.77;;
54919;SDS011;63804;53.120;8.764;2024-01-06T12:12:30;16.20;;;9.27;;
54919;SDS011;63804;53.120;8.764;2024-01-06T12:14:58;17.20;;;9.30;;
54919;SDS011;63804;53.120;8.764;2024-01-06T12:17:29;13.65;;;8.30;;
54919;SDS011;63804;53.120;8.764;2024-01-06T12:19:59;14.77;;;8.38;;
54919;SDS011;63804;53.120;8.764;2024-01-06T12:22:29;13.95;;;8.02;;
54919;SDS011;63804;53.120;8.764;2024-01-06T12:24:58;14.45;;;8.57;;
54919;SDS011;63804;53.120;8.764;2024-01-06T12:27:26;13.82;;;7.93;;
54919;SDS011;63804;53.120;8.764;2024-01-06T12:29:54;13.52;;;7.85;;
54919;SDS011;63804;53.120;8.764;2024-01-06T12:32:22;14.02;;;7.90;;
54919;SDS011;63804;53.120;8.764;2024-01-06T12:34:51;13.85;;;7.57;;
54919;SDS011;63804;53.120;8.764;2024-01-06T12:37:19;14.23;;;7.63;;
54919;SDS011;63804;53.120;8.764;2024-01-06T12:39:47;13.63;;;7.85;;
54919;SDS011;63804;53.120;8.764;2024-01-06T12:42:15;14.02;;;7.43;;
54919;SDS011;63804;53.120;8.764;2024-01-06T12:44:44;12.75;;;7.15;;
54919;SDS011;63804;53.120;8.764;2024-01-06T12:47:12;13.65;;;7.28;;
54919;SDS011;63804;53.120;8.764;2024-01-06T12:49:40;11.10;;;6.82;;
54919;SDS011;63804;53.120;8.764;2024-01-06T12:52:09;13.52;;;7.47;;
54919;SDS011;63804;53.120;8.764;2024-01-06T12:54:38;12.82;;;7.80;;
54919;SDS011;63804;53.120;8.764;2024-01-06T12:57:08;14.27;;;7.70;;
54919;SDS011;63804;53.120;8.764;2024-01-06T12:59:36;13.13;;;7.47;;
54919;SDS011;63804;53.120;8.764;2024-01-06T13:02:03;12.23;;;7.18;;
54919;SDS011;63804;53.120;8.764;2024-01-06T13:04:32;13.90;;;7.68;;
54919;SDS011;63804;53.120;8.764;2024-01-06T13:07:00;15.73;;;7.88;;
54919;SDS011;63804;53.120;8.764;2024-01-06T13:09:30;14.30;;;8.18;;
54919;SDS011;63804;53.120;8.764;2024-01-06T13:11:58;14.02;;;7.88;;
54919;SDS011;63804;53.120;8.764;2024-01-06T13:14:28;13.95;;;7.90;;
54919;SDS011;63804;53.120;8.764;2024-01-06T13:17:00;13.95;;;7.80;;
54919;SDS011;63804;53.120;8.764;2024-01-06T13:19:28;13.57;;;7.68;;
54919;SDS011;63804;53.120;8.764;2024-01-06T13:21:57;14.90;;;8.43;;
54919;SDS011;63804;53.120;8.764;2024-01-06T13:24:25;14.60;;;8.65;;
54919;SDS011;63804;53.120;8.764;2024-01-06T13:26:53;14.27;;;8.43;;
54919;SDS011;63804;53.120;8.764;2024-01-06T13:29:22;14.80;;;8.10;;
54919;SDS011;63804;53.120;8.764;2024-01-06T13:31:50;14.70;;;8.65;;
54919;SDS011;63804;53.120;8.764;2024-01-06T13:34:20;13.73;;;7.82;;
54919;SDS011;63804;53.120;8.764;2024-01-06T13:36:48;14.43;;;8.35;;
54919;SDS011;63804;53.120;8.764;2024-01-06T13:39:16;13.48;;;7.75;;
54919;SDS011;63804;53.120;8.764;2024-01-06T13:41:50;13.23;;;8.02;;
54919;SDS011;63804;53.120;8.764;2024-01-06T13:44:18;15.23;;;8.68;;
54919;SDS011;63804;53.120;8.764;2024-01-06T13:46:46;13.18;;;8.18;;
54919;SDS011;63804;53.120;8.764;2024-01-06T13:49:15;13.75;;;8.30;;
54919;SDS011;63804;53.120;8.764;2024-01-06T13:51:43;13.82;;;7.90;;
54919;SDS011;63804;53.120;8.764;2024-01-06T13:54:11;15.07;;;7.85;;
54919;SDS011;63804;53.120;8.764;2024-01-06T13:56:39;16.25;;;8.35;;
54919;SDS011;63804;53.120;8.764;2024-01-06T13:59:07;14.02;;;8.35;;
54919;SDS011;63804;53.120;8.764;2024-01-06T14:01:35;14.10;;;8.27;;
54919;SDS011;63804;53.120;8.764;2024-01-06T14:04:04;16.35;;;8.77;;
54919;SDS011;63804;53.120;8.764;2024-01-06T14:06:33;14.88;;;8.23;;
54919;SDS011;63804;53.120;8.764;2024-01-06T14:09:01;14.82;;;8.15;;
54919;SDS011;63804;53.120;8.764;2024-01-06T14:11:29;14.10;;;8.25;;
54919;SDS011;63804;53.120;8.764;2024-01-06T14:13:58;13.65;;;7.75;;
54919;SDS011;63804;53.120;8.764;2024-01-06T14:16:27;13.45;;;7.85;;
54919;SDS011;63804;53.120;8.764;2024-01-06T14:18:55;12.73;;;7.60;;
54919;SDS011;63804;53.120;8.764;2024-01-06T14:21:23;13.88;;;7.72;;
54919;SDS011;63804;53.120;8.764;2024-01-06T14:23:51;13.25;;;7.90;;
54919;SDS011;63804;53.120;8.764;2024-01-06T14:26:19;13.88;;;7.47;;
54919;SDS011;63804;53.120;8.764;2024-01-06T14:28:51;13.13;;;7.65;;
54919;SDS011;63804;53.120;8.764;2024-01-06T14:31:20;12.85;;;7.10;;
54919;SDS011;63804;53.120;8.764;2024-01-06T14:33:48;14.80;;;8.20;;
54919;SDS011;63804;53.120;8.764;2024-01-06T14:36:16;13.57;;;7.75;;
54919;SDS011;63804;53.120;8.764;2024-01-06T14:38:45;13.18;;;7.90;;
54919;SDS011;63804;53.120;8.764;2024-01-06T14:41:13;15.52;;;7.95;;
54919;SDS011;63804;53.120;8.764;2024-01-06T14:43:42;11.93;;;7.07;;
54919;SDS011;63804;53.120;8.764;2024-01-06T14:46:09;14.30;;;8.25;;
54919;SDS011;63804;53.120;8.764;2024-01-06T14:48:37;13.68;;;7.88;;
54919;SDS011;63804;53.120;8.764;2024-01-06T14:51:06;15.25;;;7.93;;
54919;SDS011;63804;53.120;8.764;2024-01-06T14:53:34;13.27;;;7.28;;
54919;SDS011;63804;53.120;8.764;2024-01-06T14:56:02;12.90;;;7.60;;
54919;SDS011;63804;53.120;8.764;2024-01-06T14:58:31;13.82;;;7.38;;